Time;durP1;ratioP1;P1;durP2;ratioP2;P2;SDS_P1;SDS_P2;PMS_P1;PMS_P2;Temp;Humidity;BMP_temperature;BMP_pressure;BME280_temperature;BME280_humidity;BME280_pressure;Samples;Min_cycle;Max_cycle;Signal;HPM_P1;HPM_P2
2022/11/01 00:00:27;;;;;;;48.65;24.33;;;13.00;99.90;;;;;;5101929;28;20111;-77
2022/11/01 00:02:53;;;;;;;54.17;25.17;;;13.00;99.90;;;;;;5100180;28;20114;-82
2022/11/01 00:05:18;;;;;;;51.53;25.00;;;13.00;99.90;;;;;;5067700;28;20141;-75
2022/11/01 00:07:44;;;;;;;52.50;25.27;;;13.10;99.90;;;;;;5074771;28;20072;-76
2022/11/01 00:10:10;;;;;;;55.25;26.15;;;13.10;99.90;;;;;;5096523;28;20019;-77
2022/11/01 00:12:36;;;;;;;48.35;26.65;;;13.10;99.90;;;;;;5098989;28;20035;-75
2022/11/01 00:15:02;;;;;;;52.45;25.90;;;13.10;99.90;;;;;;5102196;28;20391;-76
2022/11/01 00:17:29;;;;;;;48.47;25.33;;;13.10;99.90;;;;;;5081964;28;20028;-75
2022/11/01 00:19:54;;;;;;;50.13;25.05;;;13.10;99.90;;;;;;5065480;28;20032;-79
2022/11/01 00:22:21;;;;;;;48.50;25.55;;;13.10;99.90;;;;;;5103588;28;20037;-77
2022/11/01 00:24:47;;;;;;;51.15;25.95;;;13.10;99.90;;;;;;5104715;28;20028;-76
2022/11/01 00:27:12;;;;;;;55.72;27.25;;;13.10;99.90;;;;;;5097568;28;20540;-77
2022/11/01 00:29:38;;;;;;;51.28;27.40;;;13.10;99.90;;;;;;5085660;28;20028;-77
2022/11/01 00:32:04;;;;;;;52.15;27.55;;;13.10;99.90;;;;;;5070781;28;20032;-75
2022/11/01 00:34:30;;;;;;;62.03;30.23;;;13.10;99.90;;;;;;5083748;28;20046;-77
2022/11/01 00:36:56;;;;;;;60.53;29.50;;;13.10;99.90;;;;;;5103445;28;20078;-79
2022/11/01 00:39:22;;;;;;;54.00;28.65;;;13.10;99.90;;;;;;5099186;28;20122;-76
2022/11/01 00:41:47;;;;;;;55.50;28.75;;;13.10;99.90;;;;;;5098242;28;20032;-75
2022/11/01 00:44:15;;;;;;;56.53;29.05;;;13.10;99.90;;;;;;5100603;28;20054;-76
2022/11/01 00:46:41;;;;;;;51.67;27.63;;;13.10;99.90;;;;;;5101966;28;20023;-79
2022/11/01 00:49:06;;;;;;;54.25;28.73;;;13.10;99.90;;;;;;5087962;28;20391;-76
2022/11/01 00:51:32;;;;;;;51.47;28.52;;;13.10;99.90;;;;;;5086589;28;20396;-78
2022/11/01 00:53:57;;;;;;;50.92;27.70;;;13.10;99.90;;;;;;5073131;28;20069;-75
2022/11/01 00:56:23;;;;;;;49.15;27.27;;;13.10;99.90;;;;;;5106911;28;20171;-78
2022/11/01 00:58:49;;;;;;;57.00;28.85;;;13.10;99.90;;;;;;5099383;28;20472;-77
2022/11/01 01:01:14;;;;;;;56.15;28.20;;;13.10;99.90;;;;;;5102046;28;20502;-75
2022/11/01 01:03:40;;;;;;;48.92;27.10;;;13.10;99.90;;;;;;5072588;28;20492;-75
2022/11/01 01:06:06;;;;;;;47.33;27.02;;;13.10;99.90;;;;;;5094138;28;20096;-76
2022/11/01 01:08:33;;;;;;;47.40;26.80;;;13.20;99.90;;;;;;5094363;28;20047;-77
2022/11/01 01:10:58;;;;;;;51.38;26.08;;;13.20;99.90;;;;;;5099516;28;20060;-77
2022/11/01 01:13:25;;;;;;;48.92;26.73;;;13.20;99.90;;;;;;5101335;28;20048;-76
2022/11/01 01:15:52;;;;;;;49.92;27.45;;;13.20;99.90;;;;;;5104613;28;20054;-79
2022/11/01 01:18:18;;;;;;;47.08;26.42;;;13.20;99.90;;;;;;5066901;28;20031;-77
2022/11/01 01:20:44;;;;;;;51.92;26.60;;;13.20;99.90;;;;;;5106899;28;20064;-78
2022/11/01 01:23:10;;;;;;;47.88;26.02;;;13.20;99.90;;;;;;5089833;28;20036;-76
2022/11/01 01:25:40;;;;;;;45.10;25.20;;;13.20;99.90;;;;;;5097712;28;20034;-76
2022/11/01 01:28:08;;;;;;;47.42;25.27;;;13.20;99.90;;;;;;5091581;28;20515;-75
2022/11/01 01:30:38;;;;;;;46.42;25.35;;;13.20;99.90;;;;;;5105699;28;20261;-77
2022/11/01 01:33:06;;;;;;;48.30;27.10;;;13.20;99.90;;;;;;5084157;28;20445;-75
2022/11/01 01:35:33;;;;;;;50.42;28.35;;;13.20;99.90;;;;;;5102352;27;20133;-76
2022/11/01 01:38:00;;;;;;;50.97;27.17;;;13.20;99.90;;;;;;5089015;28;20499;-76
2022/11/01 01:40:25;;;;;;;48.67;26.77;;;13.20;99.90;;;;;;5097301;28;20115;-77
2022/11/01 01:42:51;;;;;;;46.55;25.70;;;13.30;99.90;;;;;;5091069;28;20232;-75
2022/11/01 01:45:31;;;;;;;52.17;27.83;;;13.30;99.90;;;;;;5106394;28;20514;-78
2022/11/01 01:48:21;;;;;;;54.95;29.17;;;13.30;99.90;;;;;;5087141;28;20035;-77
2022/11/01 01:50:57;;;;;;;51.28;28.40;;;13.30;99.90;;;;;;5105952;28;20031;-76
2022/11/01 01:53:29;;;;;;;53.30;27.90;;;13.30;99.90;;;;;;5096043;28;20052;-76
2022/11/01 01:56:27;;;;;;;55.00;28.33;;;13.30;99.90;;;;;;5105979;28;20016;-78
2022/11/01 01:59:03;;;;;;;50.30;27.50;;;13.30;99.90;;;;;;5085721;28;20084;-74
2022/11/01 02:01:31;;;;;;;52.28;28.33;;;13.30;99.90;;;;;;5088139;28;20034;-75
2022/11/01 02:03:57;;;;;;;53.17;29.05;;;13.30;99.90;;;;;;5101149;28;20514;-76
2022/11/01 02:06:25;;;;;;;52.83;29.33;;;13.30;99.90;;;;;;5095620;28;20035;-75
2022/11/01 02:08:58;;;;;;;60.03;29.85;;;13.40;99.90;;;;;;5098489;27;20039;-76
2022/11/01 02:11:23;;;;;;;62.05;30.88;;;13.40;99.90;;;;;;5100868;28;20062;-75
2022/11/01 02:13:50;;;;;;;58.78;32.35;;;13.40;99.90;;;;;;5098841;28;20102;-76
2022/11/01 02:16:29;;;;;;;54.00;29.77;;;13.40;99.90;;;;;;5099357;28;20062;-75
2022/11/01 02:19:08;;;;;;;57.58;30.52;;;13.40;99.90;;;;;;5097964;28;20027;-75
2022/11/01 02:22:06;;;;;;;61.35;30.60;;;13.40;99.90;;;;;;5100232;28;20560;-76
2022/11/01 02:24:51;;;;;;;61.20;33.13;;;13.40;99.90;;;;;;5034316;28;20041;-74
2022/11/01 02:27:30;;;;;;;68.35;34.15;;;13.40;99.90;;;;;;5071293;28;20443;-76
2022/11/01 02:30:17;;;;;;;64.22;32.83;;;13.40;99.90;;;;;;5105453;28;20092;-75
2022/11/01 02:32:49;;;;;;;68.65;34.92;;;13.40;99.90;;;;;;5101920;28;20030;-77
2022/11/01 02:35:17;;;;;;;64.43;34.55;;;13.50;99.90;;;;;;5103352;28;20080;-78
2022/11/01 02:38:06;;;;;;;69.25;34.92;;;13.50;99.90;;;;;;5107196;28;20039;-76
2022/11/01 02:40:45;;;;;;;70.55;35.33;;;13.50;99.90;;;;;;5098140;28;20102;-76
2022/11/01 02:43:45;;;;;;;74.85;36.10;;;13.50;99.90;;;;;;5103142;28;20038;-75
2022/11/01 02:48:56;;;;;;;63.92;34.10;;;13.50;99.90;;;;;;5103976;28;20019;-78
2022/11/01 02:51:23;;;;;;;63.85;34.67;;;13.50;99.90;;;;;;5088765;28;20496;-76
2022/11/01 02:53:49;;;;;;;72.78;35.40;;;13.50;99.90;;;;;;5101516;28;20024;-78
2022/11/01 02:56:17;;;;;;;69.65;36.38;;;13.50;99.90;;;;;;5098003;28;20062;-76
2022/11/01 02:58:45;;;;;;;66.60;34.90;;;13.50;99.90;;;;;;5096094;28;20024;-76
2022/11/01 03:01:15;;;;;;;69.32;36.05;;;13.50;99.90;;;;;;5098418;27;20036;-78
2022/11/01 03:03:44;;;;;;;71.90;38.58;;;13.50;99.90;;;;;;5105577;28;20028;-76
2022/11/01 03:06:22;;;;;;;76.78;37.55;;;13.60;99.90;;;;;;5100903;28;20032;-77
2022/11/01 03:08:59;;;;;;;80.57;38.90;;;13.60;99.90;;;;;;5105836;28;20131;-75
2022/11/01 03:12:12;;;;;;;76.78;38.95;;;13.60;99.90;;;;;;5090886;28;20080;-77
2022/11/01 03:14:50;;;;;;;81.15;38.38;;;13.60;99.90;;;;;;5027208;28;20063;-77
2022/11/01 03:17:22;;;;;;;78.72;39.53;;;13.60;99.90;;;;;;5088690;28;20036;-76
2022/11/01 03:19:51;;;;;;;;;;;13.60;99.90;;;;;;5091209;28;20096;-77
2022/11/01 03:22:29;;;;;;;75.28;38.55;;;13.60;99.90;;;;;;5089333;28;19908;-75
2022/11/01 03:25:41;;;;;;;82.60;40.00;;;13.70;99.90;;;;;;5094717;28;20499;-74
2022/11/01 03:28:29;;;;;;;79.25;38.15;;;13.70;99.90;;;;;;5111591;28;20035;-77
2022/11/01 03:31:06;;;;;;;83.15;40.13;;;13.70;99.90;;;;;;5104305;28;20098;-74
2022/11/01 03:33:36;;;;;;;85.45;40.25;;;13.70;99.90;;;;;;5104898;28;20081;-75
2022/11/01 03:36:06;;;;;;;79.18;39.80;;;13.70;99.90;;;;;;5087974;28;20023;-75
2022/11/01 03:38:38;;;;;;;77.67;38.97;;;13.70;99.90;;;;;;5086948;28;20034;-75
2022/11/01 03:41:08;;;;;;;77.00;39.50;;;13.70;99.90;;;;;;5104263;28;20105;-74
2022/11/01 03:43:35;;;;;;;84.15;42.83;;;13.70;99.90;;;;;;5104959;28;20023;-76
2022/11/01 03:46:01;;;;;;;80.75;40.20;;;13.70;99.90;;;;;;5099843;28;20525;-78
2022/11/01 03:48:26;;;;;;;77.10;38.72;;;13.70;99.90;;;;;;5101451;28;20036;-78
2022/11/01 03:50:55;;;;;;;78.95;39.20;;;13.70;99.90;;;;;;5102145;28;20099;-76
2022/11/01 03:53:23;;;;;;;83.38;40.80;;;13.70;99.90;;;;;;5084606;28;20109;-74
2022/11/01 03:55:48;;;;;;;80.20;41.67;;;13.70;99.90;;;;;;5098102;28;20024;-77
2022/11/01 03:58:14;;;;;;;76.97;40.22;;;13.70;99.90;;;;;;5105769;28;20664;-77
2022/11/01 04:00:42;;;;;;;78.28;40.15;;;13.70;99.90;;;;;;5078871;28;20024;-77
2022/11/01 04:03:09;;;;;;;78.82;40.28;;;13.70;99.90;;;;;;5105033;28;20055;-77
2022/11/01 04:05:38;;;;;;;83.53;40.30;;;13.70;99.90;;;;;;5097899;28;20698;-80
2022/11/01 04:08:05;;;;;;;84.47;39.65;;;13.70;99.90;;;;;;5090711;28;20130;-77
2022/11/01 04:10:31;;;;;;;74.45;38.65;;;13.70;99.90;;;;;;5096099;28;20051;-76
2022/11/01 04:12:58;;;;;;;74.63;38.97;;;13.70;99.90;;;;;;5101766;28;20464;-79
2022/11/01 04:21:06;;;;;;;78.50;38.70;;;13.70;99.90;;;;;;5102663;28;20141;-76
2022/11/01 04:23:32;;;;;;;71.80;38.22;;;13.70;99.90;;;;;;5100829;28;20055;-79
2022/11/01 04:25:58;;;;;;;77.15;38.03;;;13.70;99.90;;;;;;5091058;28;20035;-76
2022/11/01 04:28:25;;;;;;;78.00;38.88;;;13.70;99.90;;;;;;5086417;28;20031;-78
2022/11/01 04:30:50;;;;;;;75.35;38.25;;;13.70;99.90;;;;;;5105933;28;20392;-77
2022/11/01 04:33:16;;;;;;;65.45;36.35;;;13.70;99.90;;;;;;5085333;28;20012;-78
2022/11/01 04:35:42;;;;;;;73.03;39.17;;;13.70;99.90;;;;;;5092888;28;20016;-79
2022/11/01 04:38:09;;;;;;;74.57;37.20;;;13.70;99.90;;;;;;5088446;28;20552;-76
2022/11/01 04:40:35;;;;;;;71.45;39.83;;;13.70;99.90;;;;;;5106666;28;20039;-76
2022/11/01 04:43:02;;;;;;;73.38;37.67;;;13.70;99.90;;;;;;5101636;28;20032;-77
2022/11/01 04:45:27;;;;;;;79.50;40.45;;;13.70;99.90;;;;;;5096807;28;20032;-79
2022/11/01 04:48:01;;;;;;;79.93;40.78;;;13.70;99.90;;;;;;5070341;28;20015;-76
2022/11/01 04:50:28;;;;;;;72.22;38.63;;;13.70;99.90;;;;;;5112044;28;20136;-75
2022/11/01 04:52:54;;;;;;;68.50;38.15;;;13.70;99.90;;;;;;5087367;28;20054;-76
2022/11/01 04:55:20;;;;;;;68.97;38.25;;;13.70;99.90;;;;;;5088190;28;20103;-78
2022/11/01 04:57:46;;;;;;;71.68;39.35;;;13.60;99.90;;;;;;5091507;28;20106;-74
2022/11/01 05:00:13;;;;;;;72.45;39.72;;;13.70;99.90;;;;;;5088182;28;20153;-76
2022/11/01 05:02:39;;;;;;;74.75;39.17;;;13.70;99.90;;;;;;5086151;28;20032;-76
2022/11/01 05:05:07;;;;;;;71.90;38.13;;;13.60;99.90;;;;;;5100070;28;20108;-77
2022/11/01 05:07:33;;;;;;;76.20;39.45;;;13.70;99.90;;;;;;5089066;28;20109;-78
2022/11/01 05:09:59;;;;;;;83.05;42.72;;;13.60;99.90;;;;;;5091447;28;20027;-77
2022/11/01 05:12:26;;;;;;;76.68;39.58;;;13.60;99.90;;;;;;5093651;28;20015;-78
2022/11/01 05:14:51;;;;;;;85.35;41.75;;;13.60;99.90;;;;;;5100387;28;20024;-76
2022/11/01 05:17:18;;;;;;;72.63;38.42;;;13.60;99.90;;;;;;5090464;28;20123;-77
2022/11/01 05:19:44;;;;;;;86.70;40.28;;;13.60;99.90;;;;;;5089919;28;20090;-76
2022/11/01 05:22:10;;;;;;;72.80;40.28;;;13.60;99.90;;;;;;5106315;28;20032;-78
2022/11/01 05:24:35;;;;;;;76.05;39.05;;;13.70;99.90;;;;;;5109540;27;20029;-77
2022/11/01 05:27:01;;;;;;;74.03;38.67;;;13.60;99.90;;;;;;5081099;28;20023;-76
2022/11/01 05:29:29;;;;;;;80.78;40.53;;;13.70;99.90;;;;;;5087388;28;20030;-77
2022/11/01 05:31:56;;;;;;;73.72;38.92;;;13.70;99.90;;;;;;5099395;27;20434;-77
2022/11/01 05:34:24;;;;;;;72.85;40.83;;;13.70;99.90;;;;;;5088306;28;20027;-77
2022/11/01 05:36:50;;;;;;;72.78;39.45;;;13.70;99.90;;;;;;5089381;28;20020;-78
2022/11/01 05:39:17;;;;;;;67.20;37.88;;;13.70;99.90;;;;;;5107561;27;20024;-76
2022/11/01 05:41:43;;;;;;;74.57;40.85;;;13.60;99.90;;;;;;5095072;28;20035;-77
2022/11/01 05:44:08;;;;;;;65.97;36.95;;;13.70;99.90;;;;;;5091564;28;20035;-76
2022/11/01 05:46:34;;;;;;;67.45;37.33;;;13.60;99.90;;;;;;5107282;28;20099;-76
2022/11/01 05:49:02;;;;;;;85.13;41.20;;;13.70;99.90;;;;;;5100551;28;20023;-77
2022/11/01 05:51:27;;;;;;;65.28;37.40;;;13.70;99.90;;;;;;5106732;28;20549;-77
2022/11/01 05:53:53;;;;;;;71.90;38.20;;;13.70;99.90;;;;;;5104927;28;20028;-77
2022/11/01 05:56:18;;;;;;;68.78;38.67;;;13.70;99.90;;;;;;5106803;28;20024;-76
2022/11/01 05:58:46;;;;;;;68.03;36.90;;;13.70;99.90;;;;;;5089991;28;20027;-76
2022/11/01 06:01:12;;;;;;;76.30;38.50;;;13.70;99.90;;;;;;5080620;28;20110;-78
2022/11/01 06:03:37;;;;;;;72.95;40.30;;;13.70;99.90;;;;;;5101457;28;20653;-77
2022/11/01 06:06:04;;;;;;;71.45;38.08;;;13.70;99.90;;;;;;5088964;28;20023;-77
2022/11/01 06:08:31;;;;;;;61.95;35.53;;;13.70;99.90;;;;;;5101319;28;20088;-79
2022/11/01 06:11:04;;;;;;;69.55;39.10;;;13.60;99.90;;;;;;5086158;28;20067;-76
2022/11/01 06:13:31;;;;;;;72.80;39.58;;;13.60;99.90;;;;;;5095561;27;20024;-77
2022/11/01 06:16:03;;;;;;;70.78;38.17;;;13.70;99.90;;;;;;5101666;28;20023;-79
2022/11/01 06:18:29;;;;;;;69.03;36.75;;;13.70;99.90;;;;;;5096688;28;20035;-76
2022/11/01 06:20:56;;;;;;;69.70;38.88;;;13.70;99.90;;;;;;5099305;28;20024;-75
2022/11/01 06:23:22;;;;;;;65.68;36.28;;;13.70;99.90;;;;;;5100589;28;20020;-76
2022/11/01 06:25:57;;;;;;;67.97;37.80;;;13.70;99.90;;;;;;5101616;28;20383;-77
2022/11/01 06:28:24;;;;;;;69.85;35.80;;;13.70;99.90;;;;;;5097073;28;20028;-75
2022/11/01 06:30:52;;;;;;;79.90;39.78;;;13.70;99.90;;;;;;5100786;28;20054;-77
2022/11/01 06:33:18;;;;;;;59.33;34.53;;;13.70;99.90;;;;;;5098872;28;20065;-77
2022/11/01 06:35:45;;;;;;;67.03;38.08;;;13.70;99.90;;;;;;5083527;28;20047;-77
2022/11/01 06:38:13;;;;;;;64.20;35.58;;;13.70;99.90;;;;;;5084960;28;20023;-77
2022/11/01 06:40:38;;;;;;;67.22;36.70;;;13.70;99.90;;;;;;5100688;28;20019;-75
2022/11/01 06:43:04;;;;;;;44.83;24.33;;;13.70;99.90;;;;;;5081056;28;20049;-75
2022/11/01 06:45:32;;;;;;;70.05;35.83;;;13.80;99.90;;;;;;5102213;28;20038;-75
2022/11/01 06:47:58;;;;;;;65.97;33.78;;;13.90;99.90;;;;;;5087969;28;20089;-77
2022/11/01 06:50:24;;;;;;;58.95;32.20;;;13.80;99.90;;;;;;5088676;27;20035;-76
2022/11/01 06:52:50;;;;;;;61.53;34.88;;;13.80;99.90;;;;;;5098215;28;20028;-76
2022/11/01 06:55:16;;;;;;;57.42;33.47;;;13.80;99.90;;;;;;5103518;28;20384;-78
2022/11/01 06:57:42;;;;;;;55.97;33.80;;;13.70;99.90;;;;;;5104392;28;20046;-74
2022/11/01 07:00:10;;;;;;;64.68;32.85;;;13.80;99.90;;;;;;5073891;28;20032;-76
2022/11/01 07:02:36;;;;;;;65.43;34.40;;;13.80;99.90;;;;;;5103951;28;20027;-76
2022/11/01 07:05:01;;;;;;;64.65;35.40;;;13.80;99.90;;;;;;5079716;28;20027;-72
2022/11/01 07:07:27;;;;;;;58.10;33.65;;;13.80;99.90;;;;;;5083156;28;20085;-74
2022/11/01 07:09:53;;;;;;;57.70;33.03;;;13.80;99.90;;;;;;5079739;28;20039;-77
2022/11/01 07:12:19;;;;;;;57.30;31.65;;;13.80;99.90;;;;;;5086870;28;20028;-75
2022/11/01 07:14:44;;;;;;;55.88;32.38;;;13.90;99.90;;;;;;5090315;28;20383;-76
2022/11/01 07:17:10;;;;;;;54.58;31.10;;;13.80;99.90;;;;;;5083998;28;20035;-77
2022/11/01 07:19:36;;;;;;;54.90;31.80;;;13.90;99.90;;;;;;5101513;28;20020;-77
2022/11/01 07:22:01;;;;;;;59.83;33.63;;;13.90;99.90;;;;;;5097992;28;20038;-77
2022/11/01 07:24:27;;;;;;;56.22;32.85;;;13.90;99.90;;;;;;5074497;28;20375;-77
2022/11/01 07:26:56;;;;;;;57.00;32.28;;;13.90;99.90;;;;;;5097629;28;20035;-76
2022/11/01 07:29:22;;;;;;;47.50;30.02;;;14.00;99.90;;;;;;5082387;28;20035;-78
2022/11/01 07:31:48;;;;;;;46.47;29.50;;;14.00;99.90;;;;;;5105487;28;20027;-78
2022/11/01 07:34:14;;;;;;;62.28;32.17;;;14.00;99.90;;;;;;5088041;28;20069;-80
2022/11/01 07:36:41;;;;;;;51.00;29.98;;;14.00;99.90;;;;;;5067737;28;20056;-76
2022/11/01 07:39:07;;;;;;;61.35;32.22;;;14.00;99.90;;;;;;5086832;28;20683;-76
2022/11/01 07:41:33;;;;;;;52.40;29.15;;;14.00;99.90;;;;;;5104928;28;20066;-76
2022/11/01 07:43:58;;;;;;;55.13;29.85;;;14.00;99.90;;;;;;5102293;28;20032;-78
2022/11/01 07:46:24;;;;;;;53.60;30.52;;;14.10;99.90;;;;;;5105179;28;20023;-77
2022/11/01 07:48:50;;;;;;;61.55;30.80;;;14.10;99.90;;;;;;5105250;28;20036;-75
2022/11/01 07:51:16;;;;;;;51.08;29.25;;;14.10;99.90;;;;;;5108078;28;20030;-77
2022/11/01 07:53:42;;;;;;;52.67;29.80;;;14.20;99.90;;;;;;5079426;28;20045;-81
2022/11/01 07:56:08;;;;;;;46.55;28.30;;;14.20;99.90;;;;;;5106903;27;20024;-76
2022/11/01 07:58:34;;;;;;;51.30;26.90;;;14.20;99.90;;;;;;5101476;28;20031;-80
2022/11/01 08:01:00;;;;;;;50.58;27.77;;;14.20;99.90;;;;;;5100387;28;20027;-75
2022/11/01 08:03:26;;;;;;;49.80;28.90;;;14.20;99.90;;;;;;5090759;28;20031;-78
2022/11/01 08:05:52;;;;;;;50.13;29.17;;;14.30;99.90;;;;;;5109113;28;20036;-75
2022/11/01 08:08:18;;;;;;;46.03;27.83;;;14.30;99.90;;;;;;5094275;28;20334;-76
2022/11/01 08:10:45;;;;;;;47.83;27.00;;;14.30;99.90;;;;;;5093887;28;20059;-78
2022/11/01 08:13:15;;;;;;;44.45;25.67;;;14.30;99.90;;;;;;5109000;28;20020;-76
2022/11/01 08:15:41;;;;;;;43.83;27.08;;;14.40;99.90;;;;;;5084420;28;20051;-76
2022/11/01 08:18:07;;;;;;;46.60;24.77;;;14.40;99.90;;;;;;5087731;28;20028;-77
2022/11/01 08:20:33;;;;;;;44.20;25.48;;;14.40;99.90;;;;;;5091086;28;20386;-79
2022/11/01 08:22:59;;;;;;;41.78;24.70;;;14.40;99.90;;;;;;5110810;28;20031;-77
2022/11/01 08:25:24;;;;;;;45.15;26.23;;;14.40;99.90;;;;;;5090804;28;20487;-77
2022/11/01 08:27:50;;;;;;;48.85;26.35;;;14.40;99.90;;;;;;5106474;28;20483;-76
2022/11/01 08:30:17;;;;;;;45.45;26.80;;;14.40;99.90;;;;;;5088944;28;20032;-76
2022/11/01 08:32:44;;;;;;;49.85;25.98;;;14.50;99.90;;;;;;5108443;28;20072;-78
2022/11/01 08:35:13;;;;;;;43.90;24.42;;;14.50;99.90;;;;;;5105788;28;20028;-77
2022/11/01 08:37:51;;;;;;;39.58;24.30;;;14.50;99.90;;;;;;5099663;28;20081;-75
2022/11/01 08:40:18;;;;;;;36.95;23.63;;;14.60;99.90;;;;;;5107821;28;20446;-80
2022/11/01 08:42:44;;;;;;;37.08;21.67;;;14.60;99.90;;;;;;5106121;28;20020;-79
2022/11/01 08:45:10;;;;;;;38.58;22.48;;;14.70;99.90;;;;;;5082706;28;20020;-77
2022/11/01 08:47:37;;;;;;;38.88;22.05;;;14.60;99.90;;;;;;5109009;27;20027;-76
2022/11/01 08:50:03;;;;;;;28.83;17.92;;;14.60;99.90;;;;;;5100752;27;20537;-77
2022/11/01 08:52:30;;;;;;;30.25;17.25;;;14.70;99.90;;;;;;5103081;28;20073;-76
2022/11/01 08:54:56;;;;;;;22.05;13.73;;;14.70;99.90;;;;;;5101039;28;20103;-79
2022/11/01 08:57:21;;;;;;;21.98;11.68;;;14.70;99.90;;;;;;5111757;27;20460;-78
2022/11/01 08:59:47;;;;;;;14.65;9.15;;;14.80;99.90;;;;;;5107754;28;20402;-75
2022/11/01 09:02:13;;;;;;;17.60;8.25;;;14.90;99.90;;;;;;5105412;28;20028;-77
2022/11/01 09:04:38;;;;;;;12.38;8.18;;;15.00;99.90;;;;;;5104451;28;20526;-76
2022/11/01 09:07:04;;;;;;;11.70;7.40;;;15.20;99.90;;;;;;5086767;28;20032;-77
2022/11/01 09:09:30;;;;;;;13.68;7.55;;;15.20;99.90;;;;;;5090014;28;20047;-76
2022/11/01 09:11:55;;;;;;;11.35;6.97;;;15.30;99.90;;;;;;5100662;28;20019;-76
2022/11/01 09:14:23;;;;;;;10.98;6.10;;;15.40;99.90;;;;;;5109988;27;20384;-76
2022/11/01 09:16:52;;;;;;;17.38;7.85;;;15.40;99.90;;;;;;5091689;28;20475;-77
2022/11/01 09:19:18;;;;;;;10.02;6.13;;;15.50;99.90;;;;;;5111238;28;20035;-75
2022/11/01 09:21:45;;;;;;;17.13;7.88;;;15.60;99.90;;;;;;5107180;28;20433;-75
2022/11/01 09:24:15;;;;;;;13.07;7.22;;;15.70;99.90;;;;;;5121253;28;20087;-80
2022/11/01 09:26:42;;;;;;;16.87;7.13;;;15.80;99.90;;;;;;5103500;28;20436;-78
2022/11/01 09:29:07;;;;;;;15.38;7.05;;;15.80;99.90;;;;;;5086637;28;20278;-75
2022/11/01 09:31:33;;;;;;;9.65;5.88;;;15.90;99.90;;;;;;5109979;27;20383;-77
2022/11/01 09:33:59;;;;;;;14.48;5.47;;;15.90;99.90;;;;;;5094857;28;20435;-77
2022/11/01 09:36:27;;;;;;;14.50;5.97;;;15.90;99.90;;;;;;5090201;28;20059;-76
2022/11/01 09:38:53;;;;;;;12.32;5.85;;;16.00;99.90;;;;;;5100871;28;20092;-78
2022/11/01 09:41:34;;;;;;;11.02;6.07;;;16.00;99.90;;;;;;5106930;28;20102;-77
2022/11/01 09:44:03;;;;;;;12.15;5.63;;;16.10;99.90;;;;;;5096091;28;20031;-78
2022/11/01 09:46:46;;;;;;;11.23;5.75;;;16.00;99.90;;;;;;5096813;28;20107;-78
2022/11/01 09:49:21;;;;;;;9.93;5.38;;;16.10;99.90;;;;;;5101402;28;20028;-77
2022/11/01 09:51:46;;;;;;;12.27;5.97;;;16.10;99.90;;;;;;5098503;28;20043;-77
2022/11/01 09:54:12;;;;;;;16.23;6.22;;;16.10;99.90;;;;;;5091070;28;20495;-78
2022/11/01 09:56:49;;;;;;;11.25;5.20;;;16.10;99.90;;;;;;5106473;28;20119;-76
2022/11/01 09:59:21;;;;;;;11.43;5.50;;;16.10;99.90;;;;;;5101469;28;20050;-80
2022/11/01 10:01:52;;;;;;;13.32;5.82;;;16.10;99.90;;;;;;5099283;28;20497;-76
2022/11/01 10:04:29;;;;;;;13.15;5.72;;;16.10;99.90;;;;;;5076316;28;20024;-77
2022/11/01 10:07:33;;;;;;;13.63;5.10;;;16.10;99.90;;;;;;5068717;28;20057;-78
2022/11/01 10:10:16;;;;;;;11.10;5.20;;;16.10;99.90;;;;;;5102436;28;20085;-79
2022/11/01 10:13:09;;;;;;;9.23;5.35;;;16.10;99.90;;;;;;5107379;28;20038;-76
2022/11/01 10:16:10;;;;;;;12.68;5.82;;;16.10;99.90;;;;;;5101748;28;20150;-76
2022/11/01 10:19:09;;;;;;;15.38;6.05;;;16.00;99.90;;;;;;5061573;28;20031;-76
2022/11/01 10:21:48;;;;;;;9.82;5.30;;;16.00;99.90;;;;;;5104549;28;20035;-77
2022/11/01 10:24:18;;;;;;;11.20;5.20;;;16.10;99.90;;;;;;5102522;28;20198;-76
2022/11/01 10:26:45;;;;;;;9.35;5.28;;;16.10;99.90;;;;;;5100315;28;20035;-77
2022/11/01 10:29:36;;;;;;;17.65;5.90;;;16.00;99.90;;;;;;5105346;28;20099;-79
2022/11/01 10:32:03;;;;;;;12.15;6.60;;;16.00;99.90;;;;;;5094519;28;20035;-77
2022/11/01 10:34:34;;;;;;;11.25;5.40;;;15.90;99.90;;;;;;5087157;28;20026;-77
2022/11/01 10:37:19;;;;;;;18.20;8.45;;;16.00;99.90;;;;;;5107016;28;20016;-76
2022/11/01 10:39:55;;;;;;;10.30;5.72;;;16.00;99.90;;;;;;5101604;28;20051;-76
2022/11/01 10:42:22;;;;;;;7.85;5.22;;;16.10;99.90;;;;;;5099768;28;20106;-77
2022/11/01 10:44:54;;;;;;;10.57;5.88;;;16.10;99.90;;;;;;5105698;28;20032;-77
2022/11/01 10:47:22;;;;;;;9.75;4.82;;;16.10;99.90;;;;;;5070830;28;20025;-79
2022/11/01 10:50:14;;;;;;;8.82;4.60;;;16.10;99.90;;;;;;5092888;28;20038;-76
2022/11/01 10:53:00;;;;;;;6.80;2.63;;;16.20;99.90;;;;;;5092849;28;20050;-77
2022/11/01 10:55:34;;;;;;;8.18;2.38;;;16.30;99.90;;;;;;5097826;28;20031;-76
2022/11/01 10:58:05;;;;;;;3.58;2.00;;;16.30;99.90;;;;;;5091972;28;20040;-77
2022/11/01 11:00:33;;;;;;;5.43;1.63;;;16.40;99.90;;;;;;5094632;28;20042;-77
2022/11/01 11:03:10;;;;;;;4.47;1.20;;;16.50;99.90;;;;;;5106465;28;20390;-77
2022/11/01 11:05:36;;;;;;;8.00;1.42;;;16.50;99.90;;;;;;5087215;28;20121;-77
2022/11/01 11:08:03;;;;;;;9.75;1.50;;;16.50;99.90;;;;;;5107881;28;20125;-77
2022/11/01 11:10:29;;;;;;;7.97;1.35;;;16.50;99.90;;;;;;5106517;28;20500;-76
2022/11/01 11:13:03;;;;;;;4.63;1.15;;;16.50;99.90;;;;;;5092266;28;20073;-77
2022/11/01 11:15:45;;;;;;;6.72;1.63;;;16.50;99.90;;;;;;5101505;28;20024;-79
2022/11/01 11:18:26;;;;;;;4.05;1.35;;;16.50;99.90;;;;;;5104189;28;20456;-78
2022/11/01 11:20:59;;;;;;;4.40;1.10;;;16.40;99.90;;;;;;5092600;28;20512;-83
2022/11/01 11:23:29;;;;;;;4.60;1.75;;;16.40;99.90;;;;;;5104779;28;20032;-75
2022/11/01 11:26:03;;;;;;;5.35;1.20;;;16.40;99.90;;;;;;5090299;28;20028;-79
2022/11/01 11:28:32;;;;;;;7.97;1.55;;;16.30;99.90;;;;;;5094406;28;20539;-76
2022/11/01 11:31:30;;;;;;;10.00;1.65;;;16.30;99.90;;;;;;5067292;28;20115;-76
2022/11/01 11:33:57;;;;;;;6.90;1.30;;;16.30;99.90;;;;;;5093050;28;20482;-76
2022/11/01 11:36:30;;;;;;;9.18;1.13;;;16.30;99.90;;;;;;5071672;28;20024;-75
2022/11/01 11:38:56;;;;;;;9.32;1.67;;;16.20;99.90;;;;;;5109006;28;20445;-76
2022/11/01 11:41:35;;;;;;;15.48;2.00;;;16.20;99.90;;;;;;5102134;28;20046;-77
2022/11/01 11:44:01;;;;;;;11.07;2.08;;;16.20;99.90;;;;;;5076947;28;20023;-77
2022/11/01 11:46:28;;;;;;;7.03;1.35;;;16.10;99.90;;;;;;5090503;28;20372;-76
2022/11/01 11:48:57;;;;;;;10.68;1.50;;;16.10;99.90;;;;;;5107447;28;20020;-76
2022/11/01 11:51:26;;;;;;;11.10;1.65;;;16.00;99.90;;;;;;5105334;28;20039;-75
2022/11/01 11:54:25;;;;;;;4.70;2.10;;;16.00;99.90;;;;;;5094693;28;20019;-77
2022/11/01 11:57:28;;;;;;;10.70;1.75;;;16.20;99.90;;;;;;5103483;28;20026;-77
2022/11/01 12:00:04;;;;;;;10.20;1.58;;;16.40;99.90;;;;;;4995556;28;20171;-77
2022/11/01 12:02:37;;;;;;;11.77;2.17;;;16.20;99.90;;;;;;5087077;28;20040;-80
2022/11/01 12:05:14;;;;;;;12.48;2.78;;;16.10;99.90;;;;;;5097790;28;20035;-76
2022/11/01 12:07:44;;;;;;;7.57;1.58;;;16.00;99.90;;;;;;5074384;28;20023;-76
2022/11/01 12:10:33;;;;;;;6.10;1.75;;;16.00;99.90;;;;;;5084392;28;20102;-76
2022/11/01 12:13:23;;;;;;;9.70;2.08;;;15.90;99.90;;;;;;5090259;28;20023;-77
2022/11/01 12:16:15;;;;;;;7.95;2.92;;;15.90;99.90;;;;;;5088786;28;20024;-77
2022/11/01 12:18:46;;;;;;;10.65;1.77;;;15.90;99.90;;;;;;5101155;28;20027;-77
2022/11/01 12:21:24;;;;;;;5.82;1.50;;;15.90;99.90;;;;;;5095859;28;20032;-75
2022/11/01 12:23:55;;;;;;;9.40;2.25;;;15.90;99.90;;;;;;5100891;28;20089;-77
2022/11/01 12:26:23;;;;;;;16.15;2.85;;;15.90;99.90;;;;;;5096108;28;20039;-77
2022/11/01 12:29:33;;;;;;;14.02;2.33;;;15.80;99.90;;;;;;5102163;28;20035;-76
2022/11/01 12:32:30;;;;;;;12.63;1.92;;;15.80;99.90;;;;;;5088525;28;20027;-77
2022/11/01 12:35:01;;;;;;;97.72;49.20;;;15.80;99.90;;;;;;5102062;28;20061;-76
2022/11/01 12:37:54;;;;;;;199.85;115.57;;;15.80;99.90;;;;;;5098061;28;20035;-76
2022/11/01 12:40:35;;;;;;;184.15;137.48;;;15.80;99.90;;;;;;5096676;28;20043;-77
2022/11/01 12:43:15;;;;;;;17.17;5.60;;;15.80;99.90;;;;;;5085897;28;20664;-80
2022/11/01 12:45:46;;;;;;;17.52;2.67;;;15.80;99.90;;;;;;5095411;28;20062;-77
2022/11/01 12:48:35;;;;;;;14.07;2.22;;;15.80;99.90;;;;;;5094906;28;20032;-77
2022/11/01 12:51:06;;;;;;;10.18;1.65;;;15.80;99.90;;;;;;5095260;28;20044;-76
2022/11/01 12:54:02;;;;;;;10.05;1.85;;;15.80;99.90;;;;;;5117281;28;20559;-78
2022/11/01 12:56:27;;;;;;;11.50;2.03;;;15.80;99.90;;;;;;5100290;28;20036;-78